Terminal Aerodrome Forecast
Issued by NWS

Home | Current Version | Previous Version | Graphics & Text | Print | Product List | Glossary On
Versions: 1 2 3 4 5 6 7 8 9 10 11 12 13 14 15 16 17 18 19
019
FTUS43 KICT 221730 AAC
TAFRSL
TAF AMD
KRSL 221730Z 2218/2318 18018G25KT P6SM SCT100 SCT250
     FM222300 18011KT P6SM VCTS SCT080CB
     FM230200 03010KT P6SM VCTS BKN080CB
     FM230400 01012KT P6SM VCTS BKN100CB
     FM230600 02012KT P6SM VCSH BKN090
     FM231200 01011KT P6SM BKN120=

USA.gov is the U.S. government's official web portal to all federal, state and local government web resources and services.